Time;durP1;ratioP1;P1;durP2;ratioP2;P2;SDS_P1;SDS_P2;PMS_P1;PMS_P2;Temp;Humidity;BMP_temperature;BMP_pressure;BME280_temperature;BME280_humidity;BME280_pressure;Samples;Min_cycle;Max_cycle;Signal;HPM_P1;HPM_P2
2022/12/08 00:00:40;;;;;;;;;;;1.90;99.90;;;;;;2622000;46;20783;31
2022/12/08 00:03:14;;;;;;;;;;;1.90;99.90;;;;;;2603832;54;19941;31
2022/12/08 00:11:21;;;;;;;;;;;2.00;99.90;;;;;;2604053;54;20037;31
2022/12/08 00:13:55;;;;;;;;;;;2.00;99.90;;;;;;2603702;54;20698;31
2022/12/08 00:16:32;;;;;;;;;;;2.00;99.90;;;;;;2622442;46;19958;31
2022/12/08 00:19:06;;;;;;;;;;;2.00;99.90;;;;;;2622570;46;20722;31
2022/12/08 00:21:40;;;;;;;;;;;2.10;99.90;;;;;;2603665;54;20777;31
2022/12/08 00:24:17;;;;;;;;;;;2.10;99.90;;;;;;2603972;54;19942;31
2022/12/08 00:26:51;;;;;;;;;;;2.10;99.90;;;;;;2621833;46;20022;31
2022/12/08 00:29:26;;;;;;;;;;;2.20;99.90;;;;;;2622084;46;20012;31
2022/12/08 00:32:03;;;;;;;;;;;2.20;99.90;;;;;;2603588;54;19994;31
2022/12/08 00:34:36;;;;;;;;;;;2.20;99.90;;;;;;2603964;54;20741;31
2022/12/08 00:37:16;;;;;;;;;;;2.20;99.90;;;;;;2622033;46;19972;31
2022/12/08 00:39:50;;;;;;;;;;;2.20;99.90;;;;;;2603607;54;20778;31
2022/12/08 00:42:25;;;;;;;;;;;2.30;99.90;;;;;;2603570;54;20777;31
2022/12/08 00:44:59;;;;;;;;;;;2.30;99.90;;;;;;2622106;46;20722;31
2022/12/08 00:47:38;;;;;;;;;;;2.30;99.90;;;;;;2603688;54;19934;31
2022/12/08 00:50:12;;;;;;;;;;;2.30;99.90;;;;;;2622281;46;19979;31
2022/12/08 00:52:46;;;;;;;;;;;2.30;99.90;;;;;;2603554;54;20757;31
2022/12/08 00:55:23;;;;;;;;;;;2.40;99.90;;;;;;2603724;54;19994;31
2022/12/08 00:57:56;;;;;;;;;;;2.30;99.90;;;;;;2622128;46;19934;31
2022/12/08 01:00:32;;;;;;;;;;;2.30;99.90;;;;;;2603467;54;20763;31
2022/12/08 01:03:10;;;;;;;;;;;2.40;99.90;;;;;;2603815;54;19939;31
2022/12/08 01:05:44;;;;;;;;;;;2.40;99.90;;;;;;2603677;54;19934;31
2022/12/08 01:08:18;;;;;;;;;;;2.40;99.90;;;;;;2603521;54;20770;31
2022/12/08 01:10:58;;;;;;;;;;;2.40;99.90;;;;;;2603603;54;20000;31
2022/12/08 01:13:33;;;;;;;;;;;2.40;99.90;;;;;;2622123;46;20737;31
2022/12/08 01:16:07;;;;;;;;;;;2.40;99.90;;;;;;2603400;54;20763;31
2022/12/08 01:18:40;;;;;;;;;;;2.40;99.90;;;;;;2622122;46;20711;31
2022/12/08 01:21:18;;;;;;;;;;;2.40;99.90;;;;;;2702243;39;20352;31
2022/12/08 01:23:53;;;;;;;;;;;2.40;99.90;;;;;;2603417;54;19941;31
2022/12/08 01:26:27;;;;;;;;;;;2.40;99.90;;;;;;2622398;46;19935;31
2022/12/08 01:29:04;;;;;;;;;;;2.50;99.90;;;;;;2603554;54;19935;31
2022/12/08 01:31:41;;;;;;;;;;;2.40;99.90;;;;;;2603575;54;19941;31
2022/12/08 01:34:15;;;;;;;;;;;2.40;99.90;;;;;;2603624;54;19989;31
2022/12/08 01:36:52;;;;;;;;;;;2.50;99.90;;;;;;2603470;54;20765;31
2022/12/08 01:39:26;;;;;;;;;;;2.50;99.90;;;;;;2603372;54;19960;31
2022/12/08 01:42:01;;;;;;;;;;;2.50;99.90;;;;;;2603380;54;19990;31
2022/12/08 01:44:51;;;;;;;;;;;2.50;99.90;;;;;;2622013;46;20791;31
2022/12/08 01:47:29;;;;;;;;;;;2.50;99.90;;;;;;2621945;46;19934;31
2022/12/08 01:50:03;;;;;;;;;;;2.50;99.90;;;;;;2603312;54;20805;31
2022/12/08 01:52:42;;;;;;;;;;;2.50;99.90;;;;;;2621848;46;19941;31
2022/12/08 01:55:19;;;;;;;;;;;2.50;99.90;;;;;;2621688;46;19941;31
2022/12/08 01:57:53;;;;;;;;;;;2.50;99.90;;;;;;2622147;46;19938;31
2022/12/08 02:00:27;;;;;;;;;;;2.50;99.90;;;;;;2603482;54;19965;31
2022/12/08 02:03:00;;;;;;;;;;;2.50;99.90;;;;;;2702031;39;21414;31
2022/12/08 02:05:35;;;;;;;;;;;2.50;99.90;;;;;;2621742;46;19942;31
2022/12/08 02:08:13;;;;;;;;;;;2.50;99.90;;;;;;2603575;54;19934;31
2022/12/08 02:10:48;;;;;;;;;;;2.50;99.90;;;;;;2617164;46;19943;31
2022/12/08 02:13:24;;;;;;;;;;;2.50;99.90;;;;;;2603315;54;19986;31
2022/12/08 02:16:03;;;;;;;;;;;2.60;99.90;;;;;;2603247;54;20719;31
2022/12/08 02:18:40;;;;;;;;;;;2.60;99.90;;;;;;2611064;46;20819;31
2022/12/08 02:21:14;;;;;;;;;;;2.60;99.90;;;;;;2603537;54;20713;31
2022/12/08 02:23:53;;;;;;;;;;;2.60;99.90;;;;;;2621849;46;19942;31
2022/12/08 02:26:39;;;;;;;;;;;2.60;99.90;;;;;;2603234;54;19942;31
2022/12/08 02:29:28;;;;;;;;;;;2.60;99.90;;;;;;2603416;54;19935;31
2022/12/08 02:32:10;;;;;;;;;;;2.60;99.90;;;;;;2603041;54;19961;31
2022/12/08 02:34:47;;;;;;;;;;;2.60;99.90;;;;;;2622015;47;19935;31
2022/12/08 02:37:22;;;;;;;;;;;2.70;99.90;;;;;;2603504;54;19941;31
2022/12/08 02:39:56;;;;;;;;;;;2.70;99.90;;;;;;2603136;54;19935;31
2022/12/08 02:42:29;;;;;;;;;;;2.70;99.90;;;;;;2603355;54;19994;31
2022/12/08 02:45:07;;;;;;;;;;;2.70;99.90;;;;;;2621777;47;19941;31
2022/12/08 02:47:42;;;;;;;;;;;2.70;99.90;;;;;;2603107;54;20021;31
2022/12/08 02:50:19;;;;;;;;;;;3.50;99.90;;;;;;2603998;54;20751;31
2022/12/08 02:52:54;;;;;;;;;;;2.70;99.90;;;;;;2604309;54;19934;31
2022/12/08 02:55:31;;;;;;;;;;;2.70;99.90;;;;;;2614610;46;20521;31
2022/12/08 02:58:25;;;;;;;;;;;2.70;99.90;;;;;;2603919;54;19934;31
2022/12/08 03:01:03;;;;;;;;;;;2.70;99.90;;;;;;2603963;54;19941;31
2022/12/08 03:03:37;;;;;;;;;;;2.70;99.90;;;;;;2603957;54;19941;31
2022/12/08 03:06:14;;;;;;;;;;;2.70;99.90;;;;;;2603894;54;19935;31
2022/12/08 03:08:49;;;;;;;;;;;2.70;99.90;;;;;;2603179;54;19942;31
2022/12/08 03:11:25;;;;;;;;;;;2.60;99.90;;;;;;2604058;54;20763;31
2022/12/08 03:14:01;;;;;;;;;;;2.60;99.90;;;;;;2604132;54;20011;31
2022/12/08 03:16:36;;;;;;;;;;;2.60;99.90;;;;;;2603935;54;20822;31
2022/12/08 03:19:11;;;;;;;;;;;2.60;99.90;;;;;;2622440;46;19934;31
2022/12/08 03:21:48;;;;;;;;;;;2.60;99.90;;;;;;2622336;46;19935;31
2022/12/08 03:24:22;;;;;;;;;;;2.60;99.90;;;;;;2603922;54;20781;31
2022/12/08 03:26:58;;;;;;;;;;;2.50;99.90;;;;;;2603780;54;19934;31
2022/12/08 03:29:32;;;;;;;;;;;2.50;99.90;;;;;;2603973;54;20051;31
2022/12/08 03:32:08;;;;;;;;;;;2.50;99.90;;;;;;2603898;54;19938;31
2022/12/08 03:34:44;;;;;;;;;;;2.50;99.90;;;;;;2603861;54;19934;31
2022/12/08 03:37:22;;;;;;;;;;;2.50;99.90;;;;;;2603952;54;20762;31
2022/12/08 03:39:56;;;;;;;;;;;2.50;99.90;;;;;;2622522;46;19954;31
2022/12/08 03:42:31;;;;;;;;;;;2.50;99.90;;;;;;2622385;46;19997;31
2022/12/08 03:45:05;;;;;;;;;;;2.50;99.90;;;;;;2604077;54;20729;31
2022/12/08 03:47:40;;;;;;;;;;;2.50;99.90;;;;;;2603770;54;19970;31
2022/12/08 03:50:20;;;;;;;;;;;2.50;99.90;;;;;;2603810;54;20718;31
2022/12/08 03:52:58;;;;;;;;;;;2.50;99.90;;;;;;2622668;46;20716;31
2022/12/08 03:55:33;;;;;;;;;;;2.50;99.90;;;;;;2603884;54;19935;31
2022/12/08 03:58:10;;;;;;;;;;;2.60;99.90;;;;;;2622426;46;19962;31
2022/12/08 04:00:44;;;;;;;;;;;2.50;99.90;;;;;;2622494;46;20708;31
2022/12/08 04:03:18;;;;;;;;;;;2.50;99.90;;;;;;2622511;46;20771;31
2022/12/08 04:05:52;;;;;;;;;;;2.50;99.90;;;;;;2603665;54;19943;31
2022/12/08 04:08:30;;;;;;;;;;;2.50;99.90;;;;;;2604015;54;19938;31
2022/12/08 04:11:05;;;;;;;;;;;2.50;99.90;;;;;;2603842;54;20762;31
2022/12/08 04:13:39;;;;;;;;;;;2.50;99.90;;;;;;2603967;54;20736;31
2022/12/08 04:16:17;;;;;;;;;;;2.60;99.90;;;;;;2603855;54;19938;31
2022/12/08 04:18:51;;;;;;;;;;;2.60;99.90;;;;;;2720775;39;20397;31
2022/12/08 04:21:27;;;;;;;;;;;2.60;99.90;;;;;;2603540;54;20857;31
2022/12/08 04:24:04;;;;;;;;;;;2.60;99.90;;;;;;2603696;54;19961;31
2022/12/08 04:26:38;;;;;;;;;;;2.60;99.90;;;;;;2603802;54;19934;31
2022/12/08 04:29:12;;;;;;;;;;;2.60;99.90;;;;;;2622067;46;20006;31
2022/12/08 04:31:46;;;;;;;;;;;2.60;99.90;;;;;;2622525;46;19938;31
2022/12/08 04:34:20;;;;;;;;;;;2.60;99.90;;;;;;2720540;39;20386;31
2022/12/08 04:36:54;;;;;;;;;;;2.60;99.90;;;;;;2603593;54;20036;31
2022/12/08 04:39:33;;;;;;;;;;;2.60;99.90;;;;;;2621885;46;19962;31
2022/12/08 04:42:07;;;;;;;;;;;2.70;99.90;;;;;;2603762;54;19945;31
2022/12/08 04:44:42;;;;;;;;;;;2.70;99.90;;;;;;2603756;54;20511;31
2022/12/08 04:47:19;;;;;;;;;;;2.70;99.90;;;;;;2622079;46;19989;31
2022/12/08 04:49:52;;;;;;;;;;;2.70;99.90;;;;;;2603626;54;19941;31
2022/12/08 04:52:26;;;;;;;;;;;2.70;99.90;;;;;;2603984;54;19934;31
2022/12/08 04:55:03;;;;;;;;;;;2.70;99.90;;;;;;2622450;46;19962;31
2022/12/08 04:57:38;;;;;;;;;;;2.70;99.90;;;;;;2603741;54;20732;31
2022/12/08 05:00:13;;;;;;;;;;;2.70;99.90;;;;;;2720879;39;20392;31
2022/12/08 05:02:45;;;;;;;;;;;2.70;99.90;;;;;;2621803;46;20774;31
2022/12/08 05:05:20;;;;;;;;;;;2.70;99.90;;;;;;2603282;54;20747;31
2022/12/08 05:07:55;;;;;;;;;;;2.70;99.90;;;;;;2603495;54;19943;31
2022/12/08 05:10:33;;;;;;;;;;;2.70;99.90;;;;;;2621853;46;19935;31
2022/12/08 05:13:09;;;;;;;;;;;2.70;99.90;;;;;;2702348;39;21055;31
2022/12/08 05:15:42;;;;;;;;;;;2.60;99.90;;;;;;2622370;46;19935;31
2022/12/08 05:18:18;;;;;;;;;;;2.70;99.90;;;;;;2603411;54;19935;31
2022/12/08 05:20:52;;;;;;;;;;;2.60;99.90;;;;;;2603642;54;20799;31
2022/12/08 05:23:27;;;;;;;;;;;2.60;99.90;;;;;;2603730;54;20765;31
2022/12/08 05:26:03;;;;;;;;;;;2.60;99.90;;;;;;2602885;54;21326;31
2022/12/08 05:28:41;;;;;;;;;;;2.60;99.90;;;;;;2603698;54;19945;31
2022/12/08 05:31:16;;;;;;;;;;;2.60;99.90;;;;;;2603466;54;20759;31
2022/12/08 05:33:50;;;;;;;;;;;2.60;99.90;;;;;;2603542;54;19938;31
2022/12/08 05:36:24;;;;;;;;;;;2.60;99.90;;;;;;2603675;54;20024;31
2022/12/08 05:38:59;;;;;;;;;;;2.60;99.90;;;;;;2603651;54;19981;31
2022/12/08 05:41:34;;;;;;;;;;;2.60;99.90;;;;;;2720606;39;20453;31
2022/12/08 05:44:12;;;;;;;;;;;2.60;99.90;;;;;;2603344;54;20768;31
2022/12/08 05:46:48;;;;;;;;;;;2.60;99.90;;;;;;2603405;54;19942;31
2022/12/08 05:49:22;;;;;;;;;;;2.50;99.90;;;;;;2603403;54;20020;31
2022/12/08 05:51:58;;;;;;;;;;;2.50;99.90;;;;;;2603537;54;20882;31
2022/12/08 05:54:32;;;;;;;;;;;2.50;99.90;;;;;;2603530;54;19935;31
2022/12/08 05:57:07;;;;;;;;;;;2.50;99.90;;;;;;2603590;54;20795;31
2022/12/08 05:59:43;;;;;;;;;;;2.50;99.90;;;;;;2622187;46;19935;31
2022/12/08 06:02:20;;;;;;;;;;;2.40;99.90;;;;;;2603577;54;21242;31
2022/12/08 06:04:55;;;;;;;;;;;2.40;99.90;;;;;;2603509;54;19935;31
2022/12/08 06:07:30;;;;;;;;;;;2.40;99.90;;;;;;2621893;46;19938;31
2022/12/08 06:10:05;;;;;;;;;;;2.30;99.90;;;;;;2603536;54;19941;31
2022/12/08 06:12:40;;;;;;;;;;;2.30;99.90;;;;;;2603507;54;20727;31
2022/12/08 06:15:17;;;;;;;;;;;2.30;99.90;;;;;;2603368;54;20889;31
2022/12/08 06:17:54;;;;;;;;;;;2.30;99.90;;;;;;2603519;54;19942;31
2022/12/08 06:20:28;;;;;;;;;;;2.30;99.90;;;;;;2603237;54;19943;31
2022/12/08 06:23:03;;;;;;;;;;;2.20;99.90;;;;;;2603538;54;19935;31
2022/12/08 06:25:38;;;;;;;;;;;2.20;99.90;;;;;;2621818;46;19934;31
2022/12/08 06:28:13;;;;;;;;;;;2.20;99.90;;;;;;2603523;54;19942;31
2022/12/08 06:30:47;;;;;;;;;;;2.20;99.90;;;;;;2602995;54;19946;31
2022/12/08 06:33:24;;;;;;;;;;;2.20;99.90;;;;;;2621695;47;20737;31
2022/12/08 06:35:58;;;;;;;;;;;2.30;99.90;;;;;;2621732;47;19942;31
2022/12/08 06:38:32;;;;;;;;;;;2.20;99.90;;;;;;2621595;47;19987;31
2022/12/08 06:41:06;;;;;;;;;;;2.20;99.90;;;;;;2603287;54;19942;31
2022/12/08 06:43:41;;;;;;;;;;;2.20;99.90;;;;;;2621967;47;19951;31
2022/12/08 06:46:17;;;;;;;;;;;2.20;99.90;;;;;;2621858;47;19946;31
2022/12/08 06:48:54;;;;;;;;;;;2.20;99.90;;;;;;2603261;54;19966;31
2022/12/08 06:51:32;;;;;;;;;;;2.20;99.90;;;;;;2603273;54;19934;31
2022/12/08 06:54:06;;;;;;;;;;;2.20;99.90;;;;;;2603114;54;19934;31
2022/12/08 06:56:41;;;;;;;;;;;2.20;99.90;;;;;;2621760;47;20716;31
2022/12/08 06:59:16;;;;;;;;;;;2.20;99.90;;;;;;2622035;47;19935;31
2022/12/08 07:01:52;;;;;;;;;;;2.20;99.90;;;;;;2603181;54;19934;31
2022/12/08 07:04:29;;;;;;;;;;;2.20;99.90;;;;;;2621719;47;19989;31
2022/12/08 07:07:02;;;;;;;;;;;2.20;99.90;;;;;;2603285;54;20753;31
2022/12/08 07:09:36;;;;;;;;;;;2.20;99.90;;;;;;2603141;54;20796;31
2022/12/08 07:12:10;;;;;;;;;;;2.20;99.90;;;;;;2621806;47;19941;31
2022/12/08 07:14:47;;;;;;;;;;;2.20;99.90;;;;;;2603012;54;20034;31
2022/12/08 07:17:23;;;;;;;;;;;2.20;99.90;;;;;;2603233;54;19935;31
2022/12/08 07:20:01;;;;;;;;;;;2.20;99.90;;;;;;2603259;54;20697;31
2022/12/08 07:22:36;;;;;;;;;;;2.30;99.90;;;;;;2603279;54;20014;31
2022/12/08 07:25:11;;;;;;;;;;;2.30;99.90;;;;;;2621693;47;19938;31
2022/12/08 07:27:45;;;;;;;;;;;2.30;99.90;;;;;;2621656;47;19934;31
2022/12/08 07:30:19;;;;;;;;;;;2.30;99.90;;;;;;2603307;54;20722;31
2022/12/08 07:32:54;;;;;;;;;;;2.40;99.90;;;;;;2621588;47;19934;31
2022/12/08 07:35:31;;;;;;;;;;;2.40;99.90;;;;;;2622037;46;19941;31
2022/12/08 07:38:12;;;;;;;;;;;2.40;99.90;;;;;;2603892;54;20733;31
2022/12/08 07:40:46;;;;;;;;;;;2.40;99.90;;;;;;2622526;46;20798;31
2022/12/08 07:43:21;;;;;;;;;;;2.50;99.90;;;;;;2603682;54;20791;31
2022/12/08 07:45:56;;;;;;;;;;;2.50;99.90;;;;;;2622286;46;19946;31
2022/12/08 07:48:32;;;;;;;;;;;2.50;99.90;;;;;;2622381;46;20700;31
2022/12/08 07:51:09;;;;;;;;;;;2.50;99.90;;;;;;2603790;54;20740;31
2022/12/08 07:53:44;;;;;;;;;;;2.60;99.90;;;;;;2603846;54;19985;31
2022/12/08 07:56:26;;;;;;;;;;;2.60;99.90;;;;;;2622096;46;19943;31
2022/12/08 07:59:01;;;;;;;;;;;2.60;99.90;;;;;;2603138;54;21289;31
2022/12/08 08:01:35;;;;;;;;;;;2.60;99.90;;;;;;2622592;46;19990;31
2022/12/08 08:04:10;;;;;;;;;;;2.70;99.90;;;;;;2603866;54;19934;31
2022/12/08 08:06:50;;;;;;;;;;;2.70;99.90;;;;;;2604099;54;19951;31
2022/12/08 08:09:25;;;;;;;;;;;2.80;99.90;;;;;;2604106;54;19989;31
2022/12/08 08:12:01;;;;;;;;;;;2.80;99.90;;;;;;2604141;54;20016;31
2022/12/08 08:14:56;;;;;;;;;;;2.90;99.90;;;;;;2603687;54;20850;31
2022/12/08 08:17:30;;;;;;;;;;;3.00;99.90;;;;;;2603883;54;20734;31
2022/12/08 08:20:05;;;;;;;;;;;3.00;99.90;;;;;;2603852;54;20797;31
2022/12/08 08:22:43;;;;;;;;;;;3.10;99.90;;;;;;2621963;46;20722;31
2022/12/08 08:25:17;;;;;;;;;;;3.20;99.90;;;;;;2622040;46;19942;31
2022/12/08 08:27:54;;;;;;;;;;;3.20;99.90;;;;;;2602793;54;20827;31
2022/12/08 08:30:28;;;;;;;;;;;3.30;99.90;;;;;;2605001;46;19939;31
2022/12/08 08:33:04;;;;;;;;;;;3.30;99.90;;;;;;2603675;54;19998;31
2022/12/08 08:35:38;;;;;;;;;;;3.30;99.90;;;;;;2608323;46;19946;31
2022/12/08 08:38:17;;;;;;;;;;;3.40;99.90;;;;;;2622262;46;19935;31
2022/12/08 08:40:52;;;;;;;;;;;3.50;99.90;;;;;;2613805;46;19947;31
2022/12/08 08:43:30;;;;;;;;;;;3.60;99.90;;;;;;2603725;54;19935;31
2022/12/08 08:46:11;;;;;;;;;;;3.60;99.90;;;;;;2603008;54;20780;31
2022/12/08 08:48:46;;;;;;;;;;;3.70;99.90;;;;;;2603485;54;19957;31
2022/12/08 08:51:20;;;;;;;;;;;3.70;99.90;;;;;;2603761;54;19961;31
2022/12/08 08:54:02;;;;;;;;;;;3.80;99.90;;;;;;2621818;46;20775;31
2022/12/08 08:56:37;;;;;;;;;;;3.90;99.90;;;;;;2603717;54;19961;31
2022/12/08 08:59:10;;;;;;;;;;;3.90;99.90;;;;;;2603741;54;20030;31
2022/12/08 09:01:46;;;;;;;;;;;4.00;99.90;;;;;;2622148;46;19935;31
2022/12/08 09:04:20;;;;;;;;;;;4.00;99.90;;;;;;2621997;46;19962;31
2022/12/08 09:06:55;;;;;;;;;;;4.30;99.90;;;;;;2622181;46;19993;31
2022/12/08 09:09:32;;;;;;;;;;;4.20;99.90;;;;;;2621687;46;20776;31
2022/12/08 09:12:06;;;;;;;;;;;4.40;99.90;;;;;;2603559;54;20013;31
2022/12/08 09:14:40;;;;;;;;;;;4.50;99.90;;;;;;2603663;54;19935;31
2022/12/08 09:17:16;;;;;;;;;;;4.60;99.90;;;;;;2603440;54;19935;31
2022/12/08 09:19:50;;;;;;;;;;;4.60;99.90;;;;;;2602791;54;20033;31
2022/12/08 09:22:25;;;;;;;;;;;4.70;99.90;;;;;;2602858;54;19949;31
2022/12/08 09:25:03;;;;;;;;;;;4.80;99.90;;;;;;2621857;46;20006;31
2022/12/08 09:27:37;;;;;;;;;;;5.00;99.90;;;;;;2622213;46;19935;31
2022/12/08 09:30:13;;;;;;;;;;;5.00;99.90;;;;;;2603291;54;20679;31
2022/12/08 09:32:47;;;;;;;;;;;5.20;99.90;;;;;;2603413;54;19942;31
2022/12/08 09:35:22;;;;;;;;;;;5.30;99.90;;;;;;2603596;54;19935;31
2022/12/08 09:37:56;;;;;;;;;;;5.30;99.90;;;;;;2621884;46;19935;31
2022/12/08 09:40:33;;;;;;;;;;;5.40;99.90;;;;;;2603651;54;20751;31
2022/12/08 09:43:10;;;;;;;;;;;5.50;99.90;;;;;;2603349;54;19935;31
2022/12/08 09:45:46;;;;;;;;;;;5.50;99.90;;;;;;2621910;46;19935;31
2022/12/08 09:48:21;;;;;;;;;;;5.40;99.90;;;;;;2621789;46;19941;31
2022/12/08 09:50:56;;;;;;;;;;;5.40;99.90;;;;;;2603431;54;19993;31
2022/12/08 09:53:37;;;;;;;;;;;5.40;99.90;;;;;;2622113;46;20757;31
2022/12/08 09:56:14;;;;;;;;;;;5.50;99.90;;;;;;2621992;46;20821;31
2022/12/08 09:58:51;;;;;;;;;;;5.50;99.90;;;;;;2603460;54;19934;31
2022/12/08 10:01:25;;;;;;;;;;;5.50;99.90;;;;;;2603140;54;20734;31
2022/12/08 10:03:59;;;;;;;;;;;5.50;99.90;;;;;;2719996;39;20536;31
2022/12/08 10:06:33;;;;;;;;;;;5.50;99.90;;;;;;2603236;54;19934;31
2022/12/08 10:09:23;;;;;;;;;;;5.50;99.90;;;;;;2621868;46;20017;31
2022/12/08 10:11:59;;;;;;;;;;;5.50;99.90;;;;;;2603461;54;19946;31
2022/12/08 10:14:33;;;;;;;;;;;5.50;99.90;;;;;;2621780;46;19986;31
2022/12/08 10:17:09;;;;;;;;;;;6.20;99.90;;;;;;2603390;54;19941;31
2022/12/08 10:19:45;;;;;;;;;;;5.40;99.90;;;;;;2622177;46;20478;31
2022/12/08 10:22:22;;;;;;;;;;;5.30;99.90;;;;;;2603100;54;19941;31
2022/12/08 10:24:58;;;;;;;;;;;5.30;99.90;;;;;;2605038;47;19942;31
2022/12/08 10:27:34;;;;;;;;;;;5.30;99.90;;;;;;2603261;54;20029;31
2022/12/08 10:30:15;;;;;;;;;;;5.30;99.90;;;;;;2603468;54;19934;31
2022/12/08 10:32:51;;;;;;;;;;;5.30;99.90;;;;;;2621796;47;19935;31
2022/12/08 10:35:25;;;;;;;;;;;5.20;99.90;;;;;;2603183;54;20753;31
2022/12/08 10:38:00;;;;;;;;;;;5.20;99.90;;;;;;2621565;47;19942;31
2022/12/08 10:40:37;;;;;;;;;;;5.20;99.90;;;;;;2603223;54;20864;31
2022/12/08 10:43:21;;;;;;;;;;;5.30;99.90;;;;;;2622023;47;19935;31
2022/12/08 10:45:58;;;;;;;;;;;5.30;99.90;;;;;;2603315;54;19957;31
2022/12/08 10:48:33;;;;;;;;;;;5.40;99.90;;;;;;2603019;54;20010;31
2022/12/08 10:51:07;;;;;;;;;;;5.40;99.90;;;;;;2603390;54;19989;31
2022/12/08 10:53:46;;;;;;;;;;;5.40;99.90;;;;;;2621845;47;20726;31
2022/12/08 10:56:19;;;;;;;;;;;5.40;99.90;;;;;;2603113;54;20006;31
2022/12/08 10:58:55;;;;;;;;;;;5.40;99.90;;;;;;2621799;47;20031;31
2022/12/08 11:01:34;;;;;;;;;;;5.40;99.90;;;;;;2621584;47;19990;31
2022/12/08 11:04:09;;;;;;;;;;;5.40;99.90;;;;;;2603084;54;20697;31
2022/12/08 11:06:42;;;;;;;;;;;5.40;99.90;;;;;;2621785;47;19994;31
2022/12/08 11:09:26;;;;;;;;;;;5.40;99.90;;;;;;2603310;54;19934;31
2022/12/08 11:12:01;;;;;;;;;;;5.40;99.90;;;;;;2603799;54;20789;31
2022/12/08 11:14:35;;;;;;;;;;;5.40;99.90;;;;;;2603886;54;19935;31
2022/12/08 11:17:15;;;;;;;;;;;5.50;99.90;;;;;;2603649;54;19941;31
2022/12/08 11:19:56;;;;;;;;;;;5.40;99.90;;;;;;2622625;46;20780;31
2022/12/08 11:22:29;;;;;;;;;;;5.40;99.90;;;;;;2603656;54;19942;31
2022/12/08 11:25:04;;;;;;;;;;;5.50;99.90;;;;;;2603819;54;19942;31
2022/12/08 11:27:39;;;;;;;;;;;5.50;99.90;;;;;;2603967;54;20781;31
2022/12/08 11:30:18;;;;;;;;;;;5.50;99.90;;;;;;2603658;54;19934;31
2022/12/08 11:32:57;;;;;;;;;;;5.40;99.90;;;;;;2603860;54;20732;31
2022/12/08 11:38:23;;;;;;;;;;;5.50;99.90;;;;;;2631528;54;19931;-83
2022/12/08 11:41:20;;;;;;;;;;;4.80;99.90;;;;;;2604024;54;19942;31
2022/12/08 11:43:59;;;;;;;;;;;5.90;99.90;;;;;;2604004;54;20788;31
2022/12/08 11:46:34;;;;;;;;;;;5.50;99.90;;;;;;2622204;46;19941;31
2022/12/08 11:49:11;;;;;;;;;;;5.50;99.90;;;;;;2603621;54;19935;31
2022/12/08 11:51:45;;;;;;;;;;;5.40;99.90;;;;;;2622555;46;19935;31
2022/12/08 11:54:21;;;;;;;;;;;5.50;99.90;;;;;;2603901;54;19942;31
2022/12/08 11:56:55;;;;;;;;;;;5.50;99.90;;;;;;2603792;54;19935;31
2022/12/08 11:59:30;;;;;;;;;;;5.50;99.90;;;;;;2622204;46;20764;31
2022/12/08 12:02:05;;;;;;;;;;;5.50;99.90;;;;;;2603725;54;20833;31
2022/12/08 12:04:45;;;;;;;;;;;5.50;99.90;;;;;;2603657;54;20066;31
2022/12/08 12:07:35;;;;;;;;;;;5.50;99.90;;;;;;2604109;54;20834;31
2022/12/08 12:10:10;;;;;;;;;;;5.50;99.90;;;;;;2603668;54;20803;31
2022/12/08 12:12:48;;;;;;;;;;;5.50;99.90;;;;;;2622041;46;20724;31
2022/12/08 12:15:30;;;;;;;;;;;5.50;99.90;;;;;;2603579;54;19935;31
2022/12/08 12:18:05;;;;;;;;;;;5.50;99.90;;;;;;2603943;54;19935;31
2022/12/08 12:20:48;;;;;;;;;;;5.50;99.90;;;;;;2603625;54;19934;31
2022/12/08 12:23:26;;;;;;;;;;;5.60;99.90;;;;;;2603618;54;20006;31
2022/12/08 12:26:01;;;;;;;;;;;5.60;99.90;;;;;;2603585;54;20839;31
2022/12/08 12:28:42;;;;;;;;;;;5.60;99.90;;;;;;2603547;54;19935;31
2022/12/08 12:31:17;;;;;;;;;;;5.70;99.90;;;;;;2621720;46;19934;31
2022/12/08 12:33:51;;;;;;;;;;;5.70;99.90;;;;;;2622440;46;20783;31
2022/12/08 12:36:31;;;;;;;;;;;5.70;99.90;;;;;;2603807;54;20001;31
2022/12/08 12:39:08;;;;;;;;;;;5.60;99.90;;;;;;2622278;46;20011;31
2022/12/08 12:41:45;;;;;;;;;;;5.60;99.90;;;;;;2622093;46;20010;31
2022/12/08 12:44:36;;;;;;;;;;;5.60;99.90;;;;;;2603410;54;20805;31
2022/12/08 12:47:17;;;;;;;;;;;5.60;99.90;;;;;;2603781;54;19934;31
2022/12/08 12:49:52;;;;;;;;;;;5.60;99.90;;;;;;2603458;54;19942;31
2022/12/08 12:52:41;;;;;;;;;;;5.50;99.90;;;;;;2603532;54;20748;31
2022/12/08 12:55:33;;;;;;;;;;;5.50;99.90;;;;;;2622185;46;20746;31
2022/12/08 12:58:20;;;;;;;;;;;5.50;99.90;;;;;;2603608;54;19935;31
2022/12/08 13:00:56;;;;;;;;;;;5.40;99.90;;;;;;2603502;54;19934;31
2022/12/08 13:03:30;;;;;;;;;;;5.40;99.90;;;;;;2622153;46;19954;31
2022/12/08 13:06:04;;;;;;;;;;;5.40;99.90;;;;;;2617802;46;20758;31
2022/12/08 13:08:51;;;;;;;;;;;5.40;99.90;;;;;;2622347;46;19962;31
2022/12/08 13:11:29;;;;;;;;;;;5.40;99.90;;;;;;2603708;54;19935;31
2022/12/08 13:14:05;;;;;;;;;;;5.40;99.90;;;;;;2603403;54;19934;31
2022/12/08 13:16:39;;;;;;;;;;;5.30;99.90;;;;;;2621846;46;20041;31
2022/12/08 13:19:14;;;;;;;;;;;5.30;99.90;;;;;;2622210;46;19958;31
2022/12/08 13:21:48;;;;;;;;;;;5.30;99.90;;;;;;2603531;54;20825;31
2022/12/08 13:24:25;;;;;;;;;;;5.20;99.90;;;;;;2622096;46;19951;31
2022/12/08 13:27:15;;;;;;;;;;;5.20;99.90;;;;;;2621833;46;19944;31
2022/12/08 13:29:52;;;;;;;;;;;5.10;99.90;;;;;;2603395;54;20002;31
2022/12/08 13:32:41;;;;;;;;;;;5.10;99.90;;;;;;2621589;46;19942;31
2022/12/08 13:35:39;;;;;;;;;;;5.10;99.90;;;;;;2603524;54;19939;31
2022/12/08 13:38:13;;;;;;;;;;;5.00;99.90;;;;;;2603469;54;19934;31
2022/12/08 13:40:49;;;;;;;;;;;5.00;99.90;;;;;;2603387;54;19957;31
2022/12/08 13:43:27;;;;;;;;;;;5.00;99.90;;;;;;2602844;54;20836;31
2022/12/08 13:46:20;;;;;;;;;;;4.90;99.90;;;;;;2622126;46;20028;31
2022/12/08 13:49:16;;;;;;;;;;;4.90;99.90;;;;;;2621831;46;19993;31
2022/12/08 13:52:13;;;;;;;;;;;4.90;99.90;;;;;;2603507;54;19942;31
2022/12/08 13:55:08;;;;;;;;;;;4.90;99.90;;;;;;2603361;54;20754;31
2022/12/08 13:58:02;;;;;;;;;;;4.80;99.90;;;;;;2603250;54;21416;31
2022/12/08 14:00:37;;;;;;;;;;;4.80;99.90;;;;;;2603439;54;20776;31
2022/12/08 14:03:14;;;;;;;;;;;4.80;99.90;;;;;;2602810;54;19960;31
2022/12/08 14:05:49;;;;;;;;;;;4.80;99.90;;;;;;2603481;54;19935;31
2022/12/08 14:08:45;;;;;;;;;;;4.80;99.90;;;;;;2603104;54;19934;31
2022/12/08 14:11:39;;;;;;;;;;;4.70;99.90;;;;;;2603374;54;19938;31
2022/12/08 14:14:15;;;;;;;;;;;4.70;99.90;;;;;;2621955;46;19934;31
2022/12/08 14:17:06;;;;;;;;;;;4.70;99.90;;;;;;2603502;54;19934;31
2022/12/08 14:19:44;;;;;;;;;;;4.70;99.90;;;;;;2621858;46;20749;31
2022/12/08 14:22:17;;;;;;;;;;;4.60;99.90;;;;;;2603134;54;22255;31
2022/12/08 14:24:51;;;;;;;;;;;4.60;99.90;;;;;;2603185;54;20655;31
2022/12/08 14:27:28;;;;;;;;;;;4.60;99.90;;;;;;2602400;54;19964;31
2022/12/08 14:30:01;;;;;;;;;;;4.50;99.90;;;;;;2603403;54;20710;31
2022/12/08 14:32:36;;;;;;;;;;;4.50;99.90;;;;;;2621994;47;20734;31
2022/12/08 14:35:20;;;;;;;;;;;4.50;99.90;;;;;;2603279;54;20006;31
2022/12/08 14:37:56;;;;;;;;;;;4.40;99.90;;;;;;2603420;54;20778;31
2022/12/08 14:40:31;;;;;;;;;;;4.40;99.90;;;;;;2603128;54;20018;31
2022/12/08 14:43:14;;;;;;;;;;;4.40;99.90;;;;;;2621826;47;19954;31
2022/12/08 14:45:49;;;;;;;;;;;4.30;99.90;;;;;;2603935;54;20009;31
2022/12/08 14:48:24;;;;;;;;;;;4.30;99.90;;;;;;2603961;54;20842;31
2022/12/08 14:51:03;;;;;;;;;;;4.30;99.90;;;;;;2603489;54;19969;31
2022/12/08 14:53:38;;;;;;;;;;;4.20;99.90;;;;;;2604180;54;19941;31
2022/12/08 14:56:18;;;;;;;;;;;4.20;99.90;;;;;;2603983;54;20648;31
2022/12/08 14:58:54;;;;;;;;;;;4.20;99.90;;;;;;2604074;54;19935;31
2022/12/08 15:01:27;;;;;;;;;;;4.20;99.90;;;;;;2603176;54;20043;31
2022/12/08 15:04:05;;;;;;;;;;;4.20;99.90;;;;;;2622676;46;19957;31
2022/12/08 15:06:42;;;;;;;;;;;4.20;99.90;;;;;;2622761;46;19934;31
2022/12/08 15:09:19;;;;;;;;;;;4.20;99.90;;;;;;2622092;46;19938;31
2022/12/08 15:12:01;;;;;;;;;;;4.20;99.90;;;;;;2604212;54;19957;31
2022/12/08 15:14:36;;;;;;;;;;;4.20;99.90;;;;;;2603970;54;19939;31
2022/12/08 15:17:24;;;;;;;;;;;4.20;99.90;;;;;;2603783;54;20811;31
2022/12/08 15:19:59;;;;;;;;;;;4.20;99.90;;;;;;2603964;54;20786;31
2022/12/08 15:22:35;;;;;;;;;;;4.20;99.90;;;;;;2622430;46;19942;31
2022/12/08 15:25:13;;;;;;;;;;;4.10;99.90;;;;;;2603787;54;19935;31
2022/12/08 15:27:51;;;;;;;;;;;4.10;99.90;;;;;;2604106;54;19935;31
2022/12/08 15:30:25;;;;;;;;;;;4.10;99.90;;;;;;2603957;54;19946;31
2022/12/08 15:33:00;;;;;;;;;;;4.10;99.90;;;;;;2603762;54;19942;31
2022/12/08 15:35:33;;;;;;;;;;;4.10;99.90;;;;;;2604133;54;19941;31
2022/12/08 15:38:24;;;;;;;;;;;4.20;99.90;;;;;;2603758;54;20827;31
2022/12/08 15:40:58;;;;;;;;;;;4.20;99.90;;;;;;2603950;54;20000;31
2022/12/08 15:43:36;;;;;;;;;;;4.20;99.90;;;;;;2603677;54;19934;31
2022/12/08 15:46:10;;;;;;;;;;;4.20;99.90;;;;;;2602988;54;20036;31
2022/12/08 15:48:45;;;;;;;;;;;4.10;99.90;;;;;;2603692;54;20773;31